sensor_id;sensor_type;location;lat;lon;timestamp;P1;durP1;ratioP1;P2;durP2;ratioP2
42200;SDS011;27869;51.442;7.540;2023-06-24T00:01:29;11.52;;;3.83;;
42200;SDS011;27869;51.442;7.540;2023-06-24T00:03:58;11.30;;;3.63;;
42200;SDS011;27869;51.442;7.540;2023-06-24T00:06:25;14.52;;;3.78;;
42200;SDS011;27869;51.442;7.540;2023-06-24T00:08:52;12.85;;;4.15;;
42200;SDS011;27869;51.442;7.540;2023-06-24T00:11:26;12.73;;;4.22;;
42200;SDS011;27869;51.442;7.540;2023-06-24T00:13:54;12.05;;;4.00;;
42200;SDS011;27869;51.442;7.540;2023-06-24T00:16:21;13.68;;;3.90;;
42200;SDS011;27869;51.442;7.540;2023-06-24T00:18:52;11.18;;;3.97;;
42200;SDS011;27869;51.442;7.540;2023-06-24T00:21:20;12.52;;;3.88;;
42200;SDS011;27869;51.442;7.540;2023-06-24T00:23:47;13.20;;;3.88;;
42200;SDS011;27869;51.442;7.540;2023-06-24T00:26:15;13.75;;;4.70;;
42200;SDS011;27869;51.442;7.540;2023-06-24T00:28:44;13.10;;;4.03;;
42200;SDS011;27869;51.442;7.540;2023-06-24T00:31:10;11.15;;;3.47;;
42200;SDS011;27869;51.442;7.540;2023-06-24T00:33:37;14.57;;;3.58;;
42200;SDS011;27869;51.442;7.540;2023-06-24T00:36:04;15.98;;;3.97;;
42200;SDS011;27869;51.442;7.540;2023-06-24T00:38:33;12.68;;;3.90;;
42200;SDS011;27869;51.442;7.540;2023-06-24T00:41:00;13.65;;;4.20;;
42200;SDS011;27869;51.442;7.540;2023-06-24T00:43:27;12.80;;;4.28;;
42200;SDS011;27869;51.442;7.540;2023-06-24T00:45:57;12.52;;;4.13;;
42200;SDS011;27869;51.442;7.540;2023-06-24T00:48:24;13.70;;;3.88;;
42200;SDS011;27869;51.442;7.540;2023-06-24T00:50:51;11.43;;;3.90;;
42200;SDS011;27869;51.442;7.540;2023-06-24T00:53:18;14.65;;;4.10;;
42200;SDS011;27869;51.442;7.540;2023-06-24T00:55:49;13.95;;;4.15;;
42200;SDS011;27869;51.442;7.540;2023-06-24T00:58:19;11.98;;;4.38;;
42200;SDS011;27869;51.442;7.540;2023-06-24T01:00:47;13.57;;;4.10;;
42200;SDS011;27869;51.442;7.540;2023-06-24T01:05:50;13.50;;;4.22;;
42200;SDS011;27869;51.442;7.540;2023-06-24T01:08:18;13.85;;;4.47;;
42200;SDS011;27869;51.442;7.540;2023-06-24T01:10:47;12.95;;;4.78;;
42200;SDS011;27869;51.442;7.540;2023-06-24T01:13:15;11.98;;;4.35;;
42200;SDS011;27869;51.442;7.540;2023-06-24T01:15:42;11.00;;;3.78;;
42200;SDS011;27869;51.442;7.540;2023-06-24T01:18:10;13.65;;;4.45;;
42200;SDS011;27869;51.442;7.540;2023-06-24T01:20:44;14.32;;;4.40;;
42200;SDS011;27869;51.442;7.540;2023-06-24T01:23:27;12.45;;;3.97;;
42200;SDS011;27869;51.442;7.540;2023-06-24T01:26:34;16.48;;;4.40;;
42200;SDS011;27869;51.442;7.540;2023-06-24T01:29:24;15.65;;;4.53;;
42200;SDS011;27869;51.442;7.540;2023-06-24T01:32:18;14.52;;;4.20;;
42200;SDS011;27869;51.442;7.540;2023-06-24T01:34:55;14.25;;;4.07;;
42200;SDS011;27869;51.442;7.540;2023-06-24T01:37:25;12.32;;;4.55;;
42200;SDS011;27869;51.442;7.540;2023-06-24T01:39:56;12.35;;;4.30;;
42200;SDS011;27869;51.442;7.540;2023-06-24T01:42:35;14.48;;;4.60;;
42200;SDS011;27869;51.442;7.540;2023-06-24T01:45:05;12.70;;;4.65;;
42200;SDS011;27869;51.442;7.540;2023-06-24T01:47:36;14.73;;;4.32;;
42200;SDS011;27869;51.442;7.540;2023-06-24T01:50:05;13.02;;;4.22;;
42200;SDS011;27869;51.442;7.540;2023-06-24T01:52:35;13.55;;;4.57;;
42200;SDS011;27869;51.442;7.540;2023-06-24T01:55:03;12.48;;;3.95;;
42200;SDS011;27869;51.442;7.540;2023-06-24T01:57:33;14.32;;;3.92;;
42200;SDS011;27869;51.442;7.540;2023-06-24T02:00:02;11.60;;;3.78;;
42200;SDS011;27869;51.442;7.540;2023-06-24T02:02:32;15.32;;;4.20;;
42200;SDS011;27869;51.442;7.540;2023-06-24T02:05:01;11.45;;;3.95;;
42200;SDS011;27869;51.442;7.540;2023-06-24T02:07:31;14.38;;;4.40;;
42200;SDS011;27869;51.442;7.540;2023-06-24T02:09:59;13.13;;;4.43;;
42200;SDS011;27869;51.442;7.540;2023-06-24T02:14:55;12.85;;;3.88;;
42200;SDS011;27869;51.442;7.540;2023-06-24T02:17:23;11.85;;;3.92;;
42200;SDS011;27869;51.442;7.540;2023-06-24T02:19:51;10.73;;;4.10;;
42200;SDS011;27869;51.442;7.540;2023-06-24T02:22:21;12.85;;;4.00;;
42200;SDS011;27869;51.442;7.540;2023-06-24T02:24:50;11.73;;;3.70;;
42200;SDS011;27869;51.442;7.540;2023-06-24T02:27:17;11.93;;;4.03;;
42200;SDS011;27869;51.442;7.540;2023-06-24T02:29:45;12.48;;;3.53;;
42200;SDS011;27869;51.442;7.540;2023-06-24T02:32:13;11.90;;;3.78;;
42200;SDS011;27869;51.442;7.540;2023-06-24T02:34:40;11.38;;;4.22;;
42200;SDS011;27869;51.442;7.540;2023-06-24T02:37:07;11.32;;;3.83;;
42200;SDS011;27869;51.442;7.540;2023-06-24T02:39:35;10.27;;;3.53;;
42200;SDS011;27869;51.442;7.540;2023-06-24T02:42:08;16.23;;;4.32;;
42200;SDS011;27869;51.442;7.540;2023-06-24T02:44:38;11.88;;;4.05;;
42200;SDS011;27869;51.442;7.540;2023-06-24T02:47:06;16.15;;;4.07;;
42200;SDS011;27869;51.442;7.540;2023-06-24T02:49:35;12.40;;;3.95;;
42200;SDS011;27869;51.442;7.540;2023-06-24T02:52:03;11.73;;;3.90;;
42200;SDS011;27869;51.442;7.540;2023-06-24T02:54:31;14.80;;;4.45;;
42200;SDS011;27869;51.442;7.540;2023-06-24T02:57:00;15.15;;;4.03;;
42200;SDS011;27869;51.442;7.540;2023-06-24T02:59:27;11.02;;;4.00;;
42200;SDS011;27869;51.442;7.540;2023-06-24T03:01:54;13.90;;;3.95;;
42200;SDS011;27869;51.442;7.540;2023-06-24T03:04:21;16.38;;;3.75;;
42200;SDS011;27869;51.442;7.540;2023-06-24T03:06:48;13.88;;;3.95;;
42200;SDS011;27869;51.442;7.540;2023-06-24T03:09:17;12.10;;;4.03;;
42200;SDS011;27869;51.442;7.540;2023-06-24T03:11:45;11.40;;;3.85;;
42200;SDS011;27869;51.442;7.540;2023-06-24T03:14:13;15.80;;;4.60;;
42200;SDS011;27869;51.442;7.540;2023-06-24T03:16:40;13.88;;;4.45;;
42200;SDS011;27869;51.442;7.540;2023-06-24T03:19:07;15.00;;;3.83;;
42200;SDS011;27869;51.442;7.540;2023-06-24T03:21:34;11.80;;;3.83;;
42200;SDS011;27869;51.442;7.540;2023-06-24T03:24:01;12.98;;;4.30;;
42200;SDS011;27869;51.442;7.540;2023-06-24T03:26:31;14.45;;;4.15;;
42200;SDS011;27869;51.442;7.540;2023-06-24T03:28:59;15.02;;;4.38;;
42200;SDS011;27869;51.442;7.540;2023-06-24T03:31:27;12.32;;;3.63;;
42200;SDS011;27869;51.442;7.540;2023-06-24T03:33:54;12.73;;;4.03;;
42200;SDS011;27869;51.442;7.540;2023-06-24T03:36:21;12.90;;;4.10;;
42200;SDS011;27869;51.442;7.540;2023-06-24T03:38:49;13.23;;;4.45;;
42200;SDS011;27869;51.442;7.540;2023-06-24T03:41:15;11.60;;;3.97;;
42200;SDS011;27869;51.442;7.540;2023-06-24T03:43:42;12.65;;;3.47;;
42200;SDS011;27869;51.442;7.540;2023-06-24T03:46:10;10.90;;;3.97;;
42200;SDS011;27869;51.442;7.540;2023-06-24T03:48:38;13.77;;;4.40;;
42200;SDS011;27869;51.442;7.540;2023-06-24T03:51:05;16.10;;;4.03;;
42200;SDS011;27869;51.442;7.540;2023-06-24T03:53:32;15.80;;;4.00;;
42200;SDS011;27869;51.442;7.540;2023-06-24T03:55:59;13.35;;;3.95;;
42200;SDS011;27869;51.442;7.540;2023-06-24T03:58:26;11.18;;;4.03;;
42200;SDS011;27869;51.442;7.540;2023-06-24T04:00:53;13.13;;;4.10;;
42200;SDS011;27869;51.442;7.540;2023-06-24T04:03:21;14.25;;;4.18;;
42200;SDS011;27869;51.442;7.540;2023-06-24T04:05:52;13.20;;;4.50;;
42200;SDS011;27869;51.442;7.540;2023-06-24T04:08:19;13.32;;;4.20;;
42200;SDS011;27869;51.442;7.540;2023-06-24T04:10:46;12.90;;;4.60;;
42200;SDS011;27869;51.442;7.540;2023-06-24T04:13:13;13.35;;;4.30;;
42200;SDS011;27869;51.442;7.540;2023-06-24T04:15:39;11.13;;;3.78;;
42200;SDS011;27869;51.442;7.540;2023-06-24T04:18:07;13.48;;;4.30;;
42200;SDS011;27869;51.442;7.540;2023-06-24T04:20:34;12.75;;;3.92;;
42200;SDS011;27869;51.442;7.540;2023-06-24T04:23:03;13.30;;;3.90;;
42200;SDS011;27869;51.442;7.540;2023-06-24T04:25:30;12.48;;;4.00;;
42200;SDS011;27869;51.442;7.540;2023-06-24T04:27:57;15.70;;;3.92;;
42200;SDS011;27869;51.442;7.540;2023-06-24T04:30:24;12.07;;;4.05;;
42200;SDS011;27869;51.442;7.540;2023-06-24T04:32:51;11.93;;;4.28;;
42200;SDS011;27869;51.442;7.540;2023-06-24T04:35:17;12.77;;;3.80;;
42200;SDS011;27869;51.442;7.540;2023-06-24T04:37:44;13.07;;;4.32;;
42200;SDS011;27869;51.442;7.540;2023-06-24T04:40:13;13.18;;;4.38;;
42200;SDS011;27869;51.442;7.540;2023-06-24T04:42:39;11.10;;;4.22;;
42200;SDS011;27869;51.442;7.540;2023-06-24T04:45:07;11.50;;;3.88;;
42200;SDS011;27869;51.442;7.540;2023-06-24T04:47:34;13.90;;;4.03;;
42200;SDS011;27869;51.442;7.540;2023-06-24T04:50:01;12.40;;;4.30;;
42200;SDS011;27869;51.442;7.540;2023-06-24T04:52:28;12.88;;;4.40;;
42200;SDS011;27869;51.442;7.540;2023-06-24T04:54:55;12.65;;;4.50;;
42200;SDS011;27869;51.442;7.540;2023-06-24T04:57:26;18.70;;;4.30;;
42200;SDS011;27869;51.442;7.540;2023-06-24T04:59:54;11.63;;;4.13;;
42200;SDS011;27869;51.442;7.540;2023-06-24T05:02:21;12.38;;;4.30;;
42200;SDS011;27869;51.442;7.540;2023-06-24T05:04:47;11.02;;;3.92;;
42200;SDS011;27869;51.442;7.540;2023-06-24T05:07:14;15.90;;;4.68;;
42200;SDS011;27869;51.442;7.540;2023-06-24T05:09:41;13.77;;;4.40;;
42200;SDS011;27869;51.442;7.540;2023-06-24T05:12:08;14.55;;;4.32;;
42200;SDS011;27869;51.442;7.540;2023-06-24T05:14:37;13.90;;;3.60;;
42200;SDS011;27869;51.442;7.540;2023-06-24T05:17:04;14.52;;;4.32;;
42200;SDS011;27869;51.442;7.540;2023-06-24T05:19:31;11.50;;;3.88;;
42200;SDS011;27869;51.442;7.540;2023-06-24T05:21:58;13.38;;;4.32;;
42200;SDS011;27869;51.442;7.540;2023-06-24T05:24:25;14.13;;;4.63;;
42200;SDS011;27869;51.442;7.540;2023-06-24T05:26:51;13.88;;;4.10;;
42200;SDS011;27869;51.442;7.540;2023-06-24T05:29:18;13.63;;;4.32;;
42200;SDS011;27869;51.442;7.540;2023-06-24T05:31:46;13.13;;;4.50;;
42200;SDS011;27869;51.442;7.540;2023-06-24T05:34:13;12.85;;;4.60;;
42200;SDS011;27869;51.442;7.540;2023-06-24T05:36:40;12.25;;;4.20;;
42200;SDS011;27869;51.442;7.540;2023-06-24T05:39:07;11.57;;;4.22;;
42200;SDS011;27869;51.442;7.540;2023-06-24T05:41:35;11.68;;;4.22;;
42200;SDS011;27869;51.442;7.540;2023-06-24T05:44:02;11.40;;;3.90;;
42200;SDS011;27869;51.442;7.540;2023-06-24T05:46:29;11.82;;;4.13;;
42200;SDS011;27869;51.442;7.540;2023-06-24T05:48:57;13.40;;;3.92;;
42200;SDS011;27869;51.442;7.540;2023-06-24T05:51:24;12.27;;;4.35;;
42200;SDS011;27869;51.442;7.540;2023-06-24T05:53:51;11.57;;;3.72;;
42200;SDS011;27869;51.442;7.540;2023-06-24T05:56:19;14.05;;;4.50;;
42200;SDS011;27869;51.442;7.540;2023-06-24T05:58:46;11.20;;;3.80;;
42200;SDS011;27869;51.442;7.540;2023-06-24T06:01:13;12.25;;;4.35;;
42200;SDS011;27869;51.442;7.540;2023-06-24T06:03:40;12.15;;;3.85;;
42200;SDS011;27869;51.442;7.540;2023-06-24T06:06:08;12.90;;;4.43;;
42200;SDS011;27869;51.442;7.540;2023-06-24T06:08:35;12.27;;;3.90;;
42200;SDS011;27869;51.442;7.540;2023-06-24T06:11:02;11.95;;;3.80;;
42200;SDS011;27869;51.442;7.540;2023-06-24T06:13:28;14.35;;;4.25;;
42200;SDS011;27869;51.442;7.540;2023-06-24T06:15:55;11.88;;;4.00;;
42200;SDS011;27869;51.442;7.540;2023-06-24T06:18:22;10.68;;;4.03;;
42200;SDS011;27869;51.442;7.540;2023-06-24T06:20:49;13.57;;;4.50;;
42200;SDS011;27869;51.442;7.540;2023-06-24T06:23:17;11.35;;;3.95;;
42200;SDS011;27869;51.442;7.540;2023-06-24T06:25:44;16.00;;;4.20;;
42200;SDS011;27869;51.442;7.540;2023-06-24T06:28:11;11.82;;;4.00;;
42200;SDS011;27869;51.442;7.540;2023-06-24T06:30:38;10.80;;;3.72;;
42200;SDS011;27869;51.442;7.540;2023-06-24T06:33:08;12.35;;;3.92;;
42200;SDS011;27869;51.442;7.540;2023-06-24T06:35:34;11.20;;;3.85;;
42200;SDS011;27869;51.442;7.540;2023-06-24T06:38:01;13.57;;;4.15;;
42200;SDS011;27869;51.442;7.540;2023-06-24T06:40:29;14.30;;;4.22;;
42200;SDS011;27869;51.442;7.540;2023-06-24T06:42:56;11.35;;;4.18;;
42200;SDS011;27869;51.442;7.540;2023-06-24T06:45:23;11.52;;;3.83;;
42200;SDS011;27869;51.442;7.540;2023-06-24T06:47:50;11.88;;;4.00;;
42200;SDS011;27869;51.442;7.540;2023-06-24T06:50:17;11.75;;;3.90;;
42200;SDS011;27869;51.442;7.540;2023-06-24T06:52:44;13.95;;;4.10;;
42200;SDS011;27869;51.442;7.540;2023-06-24T06:55:11;10.13;;;3.45;;
42200;SDS011;27869;51.442;7.540;2023-06-24T06:57:39;11.35;;;3.53;;
42200;SDS011;27869;51.442;7.540;2023-06-24T07:00:06;10.38;;;3.45;;
42200;SDS011;27869;51.442;7.540;2023-06-24T07:02:35;12.38;;;3.75;;
42200;SDS011;27869;51.442;7.540;2023-06-24T07:05:01;12.05;;;3.90;;
42200;SDS011;27869;51.442;7.540;2023-06-24T07:07:28;10.38;;;3.55;;
42200;SDS011;27869;51.442;7.540;2023-06-24T07:09:55;10.70;;;3.50;;
42200;SDS011;27869;51.442;7.540;2023-06-24T07:12:22;10.13;;;3.80;;
42200;SDS011;27869;51.442;7.540;2023-06-24T07:14:50;11.10;;;3.35;;
42200;SDS011;27869;51.442;7.540;2023-06-24T07:17:17;14.07;;;3.30;;
42200;SDS011;27869;51.442;7.540;2023-06-24T07:19:44;10.82;;;3.42;;
42200;SDS011;27869;51.442;7.540;2023-06-24T07:22:11;10.52;;;3.17;;
42200;SDS011;27869;51.442;7.540;2023-06-24T07:24:38;10.98;;;3.47;;
42200;SDS011;27869;51.442;7.540;2023-06-24T07:27:05;10.93;;;3.35;;
42200;SDS011;27869;51.442;7.540;2023-06-24T07:29:32;10.00;;;3.33;;
42200;SDS011;27869;51.442;7.540;2023-06-24T07:32:00;10.48;;;3.22;;
42200;SDS011;27869;51.442;7.540;2023-06-24T07:34:28;11.02;;;3.15;;
42200;SDS011;27869;51.442;7.540;2023-06-24T07:36:56;10.43;;;3.58;;
42200;SDS011;27869;51.442;7.540;2023-06-24T07:39:23;11.23;;;3.63;;
42200;SDS011;27869;51.442;7.540;2023-06-24T07:41:50;11.57;;;3.53;;
42200;SDS011;27869;51.442;7.540;2023-06-24T07:44:16;11.30;;;3.45;;
42200;SDS011;27869;51.442;7.540;2023-06-24T07:46:44;11.88;;;3.58;;
42200;SDS011;27869;51.442;7.540;2023-06-24T07:49:12;10.80;;;3.05;;
42200;SDS011;27869;51.442;7.540;2023-06-24T07:51:39;13.80;;;3.58;;
42200;SDS011;27869;51.442;7.540;2023-06-24T07:54:06;10.68;;;3.25;;
42200;SDS011;27869;51.442;7.540;2023-06-24T07:56:32;10.27;;;3.42;;
42200;SDS011;27869;51.442;7.540;2023-06-24T07:59:00;10.38;;;3.47;;
42200;SDS011;27869;51.442;7.540;2023-06-24T08:01:27;12.25;;;4.03;;
42200;SDS011;27869;51.442;7.540;2023-06-24T08:03:53;10.85;;;3.92;;
42200;SDS011;27869;51.442;7.540;2023-06-24T08:06:22;12.48;;;4.55;;
42200;SDS011;27869;51.442;7.540;2023-06-24T08:08:49;10.77;;;4.00;;
42200;SDS011;27869;51.442;7.540;2023-06-24T08:11:16;12.65;;;4.30;;
42200;SDS011;27869;51.442;7.540;2023-06-24T08:13:43;12.50;;;4.18;;
42200;SDS011;27869;51.442;7.540;2023-06-24T08:16:09;13.10;;;4.20;;
42200;SDS011;27869;51.442;7.540;2023-06-24T08:18:36;11.35;;;4.30;;
42200;SDS011;27869;51.442;7.540;2023-06-24T08:21:04;14.18;;;4.72;;
42200;SDS011;27869;51.442;7.540;2023-06-24T08:23:32;11.60;;;4.40;;
42200;SDS011;27869;51.442;7.540;2023-06-24T08:25:59;12.68;;;4.50;;
42200;SDS011;27869;51.442;7.540;2023-06-24T08:28:26;12.70;;;3.78;;
42200;SDS011;27869;51.442;7.540;2023-06-24T08:30:53;12.50;;;4.55;;
42200;SDS011;27869;51.442;7.540;2023-06-24T08:33:19;12.10;;;4.38;;
42200;SDS011;27869;51.442;7.540;2023-06-24T08:35:46;12.07;;;4.43;;
42200;SDS011;27869;51.442;7.540;2023-06-24T08:38:13;11.15;;;4.05;;
42200;SDS011;27869;51.442;7.540;2023-06-24T08:40:41;12.38;;;4.63;;
42200;SDS011;27869;51.442;7.540;2023-06-24T08:43:08;13.65;;;4.85;;
42200;SDS011;27869;51.442;7.540;2023-06-24T08:45:35;12.65;;;4.93;;
42200;SDS011;27869;51.442;7.540;2023-06-24T08:48:02;14.00;;;4.93;;
42200;SDS011;27869;51.442;7.540;2023-06-24T08:50:31;13.23;;;4.70;;
42200;SDS011;27869;51.442;7.540;2023-06-24T08:53:02;12.15;;;4.30;;
42200;SDS011;27869;51.442;7.540;2023-06-24T08:55:34;12.05;;;4.80;;
42200;SDS011;27869;51.442;7.540;2023-06-24T08:58:09;12.75;;;4.38;;
42200;SDS011;27869;51.442;7.540;2023-06-24T09:00:36;12.60;;;4.43;;
42200;SDS011;27869;51.442;7.540;2023-06-24T09:03:03;11.82;;;4.80;;
42200;SDS011;27869;51.442;7.540;2023-06-24T09:05:30;14.70;;;5.30;;
42200;SDS011;27869;51.442;7.540;2023-06-24T09:07:57;13.88;;;5.00;;
42200;SDS011;27869;51.442;7.540;2023-06-24T09:10:30;12.98;;;4.93;;
42200;SDS011;27869;51.442;7.540;2023-06-24T09:12:58;13.38;;;4.65;;
42200;SDS011;27869;51.442;7.540;2023-06-24T09:15:30;15.50;;;5.38;;
42200;SDS011;27869;51.442;7.540;2023-06-24T09:17:57;13.65;;;5.10;;
42200;SDS011;27869;51.442;7.540;2023-06-24T09:20:25;12.73;;;4.97;;
42200;SDS011;27869;51.442;7.540;2023-06-24T09:22:57;14.50;;;4.65;;
42200;SDS011;27869;51.442;7.540;2023-06-24T09:25:25;13.02;;;5.00;;
42200;SDS011;27869;51.442;7.540;2023-06-24T09:27:53;12.52;;;4.22;;
42200;SDS011;27869;51.442;7.540;2023-06-24T09:30:22;12.32;;;4.38;;
42200;SDS011;27869;51.442;7.540;2023-06-24T09:32:51;13.20;;;5.15;;
42200;SDS011;27869;51.442;7.540;2023-06-24T09:35:19;16.00;;;5.55;;
42200;SDS011;27869;51.442;7.540;2023-06-24T09:37:50;14.90;;;6.10;;
42200;SDS011;27869;51.442;7.540;2023-06-24T09:40:17;13.07;;;5.65;;
42200;SDS011;27869;51.442;7.540;2023-06-24T09:42:51;15.00;;;5.57;;
42200;SDS011;27869;51.442;7.540;2023-06-24T09:45:20;13.57;;;4.90;;
42200;SDS011;27869;51.442;7.540;2023-06-24T09:47:48;13.82;;;5.15;;
42200;SDS011;27869;51.442;7.540;2023-06-24T09:50:16;13.23;;;5.25;;
42200;SDS011;27869;51.442;7.540;2023-06-24T09:52:43;14.70;;;5.22;;
42200;SDS011;27869;51.442;7.540;2023-06-24T09:55:12;13.00;;;4.65;;
42200;SDS011;27869;51.442;7.540;2023-06-24T09:57:40;11.55;;;3.78;;
42200;SDS011;27869;51.442;7.540;2023-06-24T10:00:08;12.68;;;4.43;;
42200;SDS011;27869;51.442;7.540;2023-06-24T10:02:36;13.70;;;3.95;;
42200;SDS011;27869;51.442;7.540;2023-06-24T10:05:04;14.27;;;5.22;;
42200;SDS011;27869;51.442;7.540;2023-06-24T10:07:32;11.85;;;4.80;;
42200;SDS011;27869;51.442;7.540;2023-06-24T10:10:01;13.88;;;4.70;;
42200;SDS011;27869;51.442;7.540;2023-06-24T10:12:29;15.20;;;4.90;;
42200;SDS011;27869;51.442;7.540;2023-06-24T10:14:57;15.50;;;6.18;;
42200;SDS011;27869;51.442;7.540;2023-06-24T10:17:24;16.33;;;5.50;;
42200;SDS011;27869;51.442;7.540;2023-06-24T10:19:52;13.75;;;4.70;;
42200;SDS011;27869;51.442;7.540;2023-06-24T10:22:21;13.80;;;4.95;;
42200;SDS011;27869;51.442;7.540;2023-06-24T10:24:50;11.77;;;3.72;;
42200;SDS011;27869;51.442;7.540;2023-06-24T10:27:19;13.50;;;4.85;;
42200;SDS011;27869;51.442;7.540;2023-06-24T10:29:51;12.15;;;3.90;;
42200;SDS011;27869;51.442;7.540;2023-06-24T10:32:19;14.43;;;4.18;;
42200;SDS011;27869;51.442;7.540;2023-06-24T10:34:47;13.43;;;4.35;;
42200;SDS011;27869;51.442;7.540;2023-06-24T10:37:20;12.23;;;3.92;;
42200;SDS011;27869;51.442;7.540;2023-06-24T10:39:51;12.05;;;4.00;;
42200;SDS011;27869;51.442;7.540;2023-06-24T10:42:32;13.93;;;4.38;;
42200;SDS011;27869;51.442;7.540;2023-06-24T10:45:12;12.00;;;4.50;;
42200;SDS011;27869;51.442;7.540;2023-06-24T10:47:44;10.32;;;3.75;;
42200;SDS011;27869;51.442;7.540;2023-06-24T10:50:12;12.38;;;3.97;;
42200;SDS011;27869;51.442;7.540;2023-06-24T10:52:40;11.30;;;4.10;;
42200;SDS011;27869;51.442;7.540;2023-06-24T10:55:11;13.00;;;3.58;;
42200;SDS011;27869;51.442;7.540;2023-06-24T10:57:40;12.27;;;3.80;;
42200;SDS011;27869;51.442;7.540;2023-06-24T11:00:07;12.27;;;4.35;;
42200;SDS011;27869;51.442;7.540;2023-06-24T11:02:35;12.70;;;4.18;;
42200;SDS011;27869;51.442;7.540;2023-06-24T11:05:02;12.25;;;4.15;;
42200;SDS011;27869;51.442;7.540;2023-06-24T11:07:31;13.45;;;4.15;;
42200;SDS011;27869;51.442;7.540;2023-06-24T11:10:01;11.73;;;4.28;;
42200;SDS011;27869;51.442;7.540;2023-06-24T11:12:31;11.77;;;4.00;;
42200;SDS011;27869;51.442;7.540;2023-06-24T11:15:00;11.43;;;3.53;;
42200;SDS011;27869;51.442;7.540;2023-06-24T11:17:27;11.25;;;3.60;;
42200;SDS011;27869;51.442;7.540;2023-06-24T11:19:55;10.10;;;3.50;;
42200;SDS011;27869;51.442;7.540;2023-06-24T11:22:23;10.70;;;3.60;;
42200;SDS011;27869;51.442;7.540;2023-06-24T11:24:51;12.75;;;3.38;;
42200;SDS011;27869;51.442;7.540;2023-06-24T11:27:23;12.15;;;3.85;;
42200;SDS011;27869;51.442;7.540;2023-06-24T11:29:53;11.68;;;3.70;;
42200;SDS011;27869;51.442;7.540;2023-06-24T11:32:21;12.82;;;3.55;;
42200;SDS011;27869;51.442;7.540;2023-06-24T11:34:48;11.70;;;3.58;;
42200;SDS011;27869;51.442;7.540;2023-06-24T11:37:16;9.77;;;3.55;;
42200;SDS011;27869;51.442;7.540;2023-06-24T11:39:44;9.60;;;3.17;;
42200;SDS011;27869;51.442;7.540;2023-06-24T11:42:25;10.55;;;3.20;;
42200;SDS011;27869;51.442;7.540;2023-06-24T11:45:00;11.32;;;3.00;;
42200;SDS011;27869;51.442;7.540;2023-06-24T11:47:29;9.82;;;3.30;;
42200;SDS011;27869;51.442;7.540;2023-06-24T11:49:57;12.95;;;3.58;;
42200;SDS011;27869;51.442;7.540;2023-06-24T11:52:38;10.02;;;3.30;;
42200;SDS011;27869;51.442;7.540;2023-06-24T11:55:10;11.45;;;3.70;;
42200;SDS011;27869;51.442;7.540;2023-06-24T11:57:51;11.73;;;3.35;;
42200;SDS011;27869;51.442;7.540;2023-06-24T12:00:21;10.00;;;3.33;;
42200;SDS011;27869;51.442;7.540;2023-06-24T12:02:49;11.25;;;3.45;;
42200;SDS011;27869;51.442;7.540;2023-06-24T12:05:24;10.30;;;3.30;;
42200;SDS011;27869;51.442;7.540;2023-06-24T12:08:00;10.82;;;3.00;;
42200;SDS011;27869;51.442;7.540;2023-06-24T12:10:28;10.00;;;3.45;;
42200;SDS011;27869;51.442;7.540;2023-06-24T12:12:57;10.63;;;3.10;;
42200;SDS011;27869;51.442;7.540;2023-06-24T12:15:25;9.18;;;2.75;;
42200;SDS011;27869;51.442;7.540;2023-06-24T12:17:53;9.30;;;2.78;;
42200;SDS011;27869;51.442;7.540;2023-06-24T12:20:20;9.10;;;3.15;;
42200;SDS011;27869;51.442;7.540;2023-06-24T12:22:47;11.95;;;2.72;;
42200;SDS011;27869;51.442;7.540;2023-06-24T12:25:15;10.73;;;2.83;;
42200;SDS011;27869;51.442;7.540;2023-06-24T12:27:43;10.07;;;3.17;;
42200;SDS011;27869;51.442;7.540;2023-06-24T12:30:10;9.93;;;3.50;;
42200;SDS011;27869;51.442;7.540;2023-06-24T12:32:39;9.77;;;2.75;;
42200;SDS011;27869;51.442;7.540;2023-06-24T12:37:34;9.55;;;2.80;;
42200;SDS011;27869;51.442;7.540;2023-06-24T12:40:02;9.38;;;2.80;;
42200;SDS011;27869;51.442;7.540;2023-06-24T12:42:29;9.10;;;2.63;;
42200;SDS011;27869;51.442;7.540;2023-06-24T12:44:56;10.07;;;2.75;;
42200;SDS011;27869;51.442;7.540;2023-06-24T12:47:22;9.15;;;2.78;;
42200;SDS011;27869;51.442;7.540;2023-06-24T12:49:51;9.88;;;2.95;;
42200;SDS011;27869;51.442;7.540;2023-06-24T12:52:18;11.73;;;2.63;;
42200;SDS011;27869;51.442;7.540;2023-06-24T12:54:45;10.10;;;2.97;;
42200;SDS011;27869;51.442;7.540;2023-06-24T12:57:13;9.35;;;2.72;;
42200;SDS011;27869;51.442;7.540;2023-06-24T12:59:40;12.10;;;2.92;;
42200;SDS011;27869;51.442;7.540;2023-06-24T13:02:07;9.68;;;3.10;;
42200;SDS011;27869;51.442;7.540;2023-06-24T13:04:34;9.25;;;2.80;;
42200;SDS011;27869;51.442;7.540;2023-06-24T13:07:02;9.40;;;2.80;;
42200;SDS011;27869;51.442;7.540;2023-06-24T13:09:29;13.20;;;3.10;;
42200;SDS011;27869;51.442;7.540;2023-06-24T13:11:56;11.95;;;2.78;;
42200;SDS011;27869;51.442;7.540;2023-06-24T13:14:23;9.35;;;2.70;;
42200;SDS011;27869;51.442;7.540;2023-06-24T13:19:18;9.90;;;3.13;;
42200;SDS011;27869;51.442;7.540;2023-06-24T13:21:45;9.48;;;2.70;;
42200;SDS011;27869;51.442;7.540;2023-06-24T13:24:14;8.57;;;2.63;;
42200;SDS011;27869;51.442;7.540;2023-06-24T13:26:40;9.82;;;3.00;;
42200;SDS011;27869;51.442;7.540;2023-06-24T13:29:07;8.90;;;2.65;;
42200;SDS011;27869;51.442;7.540;2023-06-24T13:31:34;11.10;;;2.45;;
42200;SDS011;27869;51.442;7.540;2023-06-24T13:34:01;8.57;;;2.40;;
42200;SDS011;27869;51.442;7.540;2023-06-24T13:36:30;7.65;;;2.50;;
42200;SDS011;27869;51.442;7.540;2023-06-24T13:39:00;8.25;;;2.53;;
42200;SDS011;27869;51.442;7.540;2023-06-24T13:41:28;8.63;;;2.42;;
42200;SDS011;27869;51.442;7.540;2023-06-24T13:43:57;9.00;;;2.53;;
42200;SDS011;27869;51.442;7.540;2023-06-24T13:46:24;8.90;;;2.53;;
42200;SDS011;27869;51.442;7.540;2023-06-24T13:48:52;9.30;;;2.90;;
42200;SDS011;27869;51.442;7.540;2023-06-24T13:51:19;10.55;;;2.72;;
42200;SDS011;27869;51.442;7.540;2023-06-24T13:53:46;10.23;;;2.90;;
42200;SDS011;27869;51.442;7.540;2023-06-24T13:58:42;10.43;;;2.83;;
42200;SDS011;27869;51.442;7.540;2023-06-24T14:01:09;9.23;;;2.85;;
42200;SDS011;27869;51.442;7.540;2023-06-24T14:03:36;8.00;;;2.70;;
42200;SDS011;27869;51.442;7.540;2023-06-24T14:06:03;10.50;;;2.83;;
42200;SDS011;27869;51.442;7.540;2023-06-24T14:08:31;9.05;;;2.60;;
42200;SDS011;27869;51.442;7.540;2023-06-24T14:10:59;11.23;;;2.60;;
42200;SDS011;27869;51.442;7.540;2023-06-24T14:13:26;10.00;;;3.17;;
42200;SDS011;27869;51.442;7.540;2023-06-24T14:15:55;11.60;;;2.72;;
42200;SDS011;27869;51.442;7.540;2023-06-24T14:18:22;9.35;;;2.83;;
42200;SDS011;27869;51.442;7.540;2023-06-24T14:20:50;10.18;;;2.70;;
42200;SDS011;27869;51.442;7.540;2023-06-24T14:23:17;8.70;;;2.45;;
42200;SDS011;27869;51.442;7.540;2023-06-24T14:25:43;8.88;;;2.53;;
42200;SDS011;27869;51.442;7.540;2023-06-24T14:28:10;10.05;;;2.50;;
42200;SDS011;27869;51.442;7.540;2023-06-24T14:30:37;9.50;;;2.88;;
42200;SDS011;27869;51.442;7.540;2023-06-24T14:33:05;11.82;;;3.05;;
42200;SDS011;27869;51.442;7.540;2023-06-24T14:35:32;10.50;;;3.20;;
42200;SDS011;27869;51.442;7.540;2023-06-24T14:37:59;10.38;;;3.15;;
42200;SDS011;27869;51.442;7.540;2023-06-24T14:40:26;11.30;;;3.50;;
42200;SDS011;27869;51.442;7.540;2023-06-24T14:42:52;8.60;;;2.85;;
42200;SDS011;27869;51.442;7.540;2023-06-24T14:45:19;10.10;;;2.95;;
42200;SDS011;27869;51.442;7.540;2023-06-24T14:47:46;9.27;;;2.78;;
42200;SDS011;27869;51.442;7.540;2023-06-24T14:50:14;10.25;;;2.95;;
42200;SDS011;27869;51.442;7.540;2023-06-24T14:52:41;12.57;;;3.20;;
42200;SDS011;27869;51.442;7.540;2023-06-24T14:55:08;11.98;;;2.63;;